Time;durP1;ratioP1;P1;durP2;ratioP2;P2;SDS_P1;SDS_P2;PMS_P1;PMS_P2;Temp;Humidity;BMP_temperature;BMP_pressure;BME280_temperature;BME280_humidity;BME280_pressure;Samples;Min_cycle;Max_cycle;Signal;HPM_P1;HPM_P2
2024/01/23 00:00:17;;;;;;;8.30;1.77;;;5.00;99.90;;;;;;5044350;28;20718;-46
2024/01/23 00:02:46;;;;;;;6.15;1.70;;;5.00;99.90;;;;;;5049489;28;20244;-46
2024/01/23 00:05:14;;;;;;;4.45;1.20;;;5.00;99.90;;;;;;5046999;28;20251;-46
2024/01/23 00:07:42;;;;;;;6.55;1.60;;;5.00;99.90;;;;;;5048428;28;20200;-46
2024/01/23 00:10:10;;;;;;;6.07;1.60;;;5.00;99.90;;;;;;5042598;28;20227;-46
2024/01/23 00:12:39;;;;;;;3.72;1.70;;;5.00;99.90;;;;;;5042707;28;20723;-46
2024/01/23 00:15:09;;;;;;;6.05;1.63;;;5.00;99.90;;;;;;5045465;28;20564;-46
2024/01/23 00:17:37;;;;;;;2.80;1.58;;;5.00;99.90;;;;;;5044341;28;20208;-46
2024/01/23 00:20:07;;;;;;;4.25;1.58;;;5.00;99.90;;;;;;5047006;28;20225;-46
2024/01/23 00:22:35;;;;;;;4.35;1.38;;;5.00;99.90;;;;;;5048083;28;20244;-46
2024/01/23 00:25:04;;;;;;;4.28;1.50;;;5.00;99.90;;;;;;5047143;28;20282;-46
2024/01/23 00:27:32;;;;;;;4.57;1.38;;;5.00;99.90;;;;;;5044028;28;20235;-46
2024/01/23 00:30:02;;;;;;;7.72;1.90;;;5.00;99.90;;;;;;5043777;28;20247;-46
2024/01/23 00:32:31;;;;;;;2.63;1.33;;;5.00;99.90;;;;;;5045953;28;20208;-45
2024/01/23 00:34:59;;;;;;;6.22;1.33;;;5.00;99.90;;;;;;5046712;28;20213;-46
2024/01/23 00:37:28;;;;;;;10.02;1.73;;;5.00;99.90;;;;;;5042645;28;20196;-47
2024/01/23 00:39:56;;;;;;;4.82;1.35;;;5.00;99.90;;;;;;5044770;28;20254;-45
2024/01/23 00:42:25;;;;;;;8.70;1.40;;;5.00;99.90;;;;;;5040143;28;20283;-46
2024/01/23 00:44:53;;;;;;;2.67;1.48;;;5.00;99.90;;;;;;5047025;28;20228;-46
2024/01/23 00:47:22;;;;;;;7.53;2.10;;;5.00;99.90;;;;;;5047021;28;20586;-46
2024/01/23 00:49:52;;;;;;;4.63;1.77;;;5.00;99.90;;;;;;5043307;28;20213;-45
2024/01/23 00:52:20;;;;;;;2.95;1.42;;;5.10;99.90;;;;;;5042341;28;20736;-45
2024/01/23 00:54:48;;;;;;;2.22;1.52;;;5.00;99.90;;;;;;5044390;28;20253;-45
2024/01/23 00:57:16;;;;;;;6.05;1.35;;;5.00;99.90;;;;;;5045632;28;20221;-45
2024/01/23 00:59:44;;;;;;;4.90;1.67;;;5.10;99.90;;;;;;5042442;28;20236;-47
2024/01/23 01:02:12;;;;;;;8.30;2.05;;;5.10;99.90;;;;;;5042131;28;20228;-45
2024/01/23 01:04:42;;;;;;;5.82;2.30;;;5.00;99.90;;;;;;5045405;28;20181;-46
2024/01/23 01:07:11;;;;;;;3.42;1.70;;;5.10;99.90;;;;;;5045956;28;20189;-45
2024/01/23 01:09:39;;;;;;;6.55;1.80;;;5.10;99.90;;;;;;5051150;28;20197;-45
2024/01/23 01:12:08;;;;;;;4.50;1.40;;;5.10;99.90;;;;;;5043181;28;20288;-45
2024/01/23 01:14:37;;;;;;;5.43;3.20;;;5.10;99.90;;;;;;5050215;28;20207;-46
2024/01/23 01:17:05;;;;;;;4.07;1.80;;;5.10;99.90;;;;;;5041573;28;20205;-46
2024/01/23 01:19:33;;;;;;;3.70;1.33;;;5.00;99.90;;;;;;5051523;28;20213;-46
2024/01/23 01:22:02;;;;;;;4.18;1.73;;;5.10;99.90;;;;;;5050891;28;20227;-45
2024/01/23 01:24:32;;;;;;;4.63;1.90;;;5.10;99.90;;;;;;5049345;28;20638;-46
2024/01/23 01:27:01;;;;;;;4.10;1.60;;;5.10;99.90;;;;;;5051375;28;20207;-46
2024/01/23 01:29:29;;;;;;;3.40;1.25;;;5.00;99.90;;;;;;5044542;28;20204;-45
2024/01/23 01:31:58;;;;;;;4.35;1.60;;;5.10;99.90;;;;;;5031692;28;20605;-46
2024/01/23 01:34:27;;;;;;;11.02;1.90;;;5.10;99.90;;;;;;5045047;28;20468;-46
2024/01/23 01:36:55;;;;;;;4.13;2.03;;;5.10;99.90;;;;;;5051093;28;20216;-45
2024/01/23 01:39:23;;;;;;;4.25;1.77;;;5.10;99.90;;;;;;5050637;28;20204;-45
2024/01/23 01:41:54;;;;;;;5.13;1.55;;;5.00;99.90;;;;;;5045012;28;20225;-46
2024/01/23 01:44:22;;;;;;;4.28;2.13;;;5.10;99.90;;;;;;5048846;28;20693;-46
2024/01/23 01:46:51;;;;;;;6.78;1.65;;;5.10;99.90;;;;;;5045881;28;20212;-46
2024/01/23 01:49:20;;;;;;;7.05;1.50;;;5.10;99.90;;;;;;5050562;28;20247;-46
2024/01/23 01:51:49;;;;;;;9.40;1.80;;;5.10;99.90;;;;;;5050144;28;20224;-45
2024/01/23 01:54:18;;;;;;;7.88;1.95;;;5.10;99.90;;;;;;5031222;28;20216;-46
2024/01/23 01:56:47;;;;;;;5.95;1.45;;;5.10;99.90;;;;;;5051015;28;20220;-46
2024/01/23 01:59:18;;;;;;;2.53;1.10;;;5.10;99.90;;;;;;5044329;28;20242;-46
2024/01/23 02:01:48;;;;;;;2.90;1.08;;;5.10;99.90;;;;;;5048633;28;20224;-46
2024/01/23 02:04:16;;;;;;;3.80;1.33;;;5.10;99.90;;;;;;5049777;28;20201;-45
2024/01/23 02:06:46;;;;;;;4.03;1.35;;;5.10;99.90;;;;;;5048641;28;20212;-45
2024/01/23 02:09:15;;;;;;;3.30;2.05;;;5.10;99.90;;;;;;5050634;28;20272;-46
2024/01/23 02:11:56;;;;;;;7.32;2.13;;;5.10;99.90;;;;;;5045267;28;20247;-45
2024/01/23 02:14:28;;;;;;;3.95;1.10;;;5.10;99.90;;;;;;5046978;28;20228;-46
2024/01/23 02:16:56;;;;;;;11.00;1.60;;;5.10;99.90;;;;;;5046567;28;20200;-46
2024/01/23 02:19:26;;;;;;;3.97;1.33;;;5.10;99.90;;;;;;5050205;28;20215;-45
2024/01/23 02:21:54;;;;;;;5.30;1.73;;;5.10;99.90;;;;;;5027301;28;20419;-45
2024/01/23 02:24:23;;;;;;;5.13;1.30;;;5.10;99.90;;;;;;5048549;28;20193;-45
2024/01/23 02:26:52;;;;;;;3.60;1.10;;;5.10;99.90;;;;;;5050911;28;20606;-46
2024/01/23 02:29:20;;;;;;;5.20;1.88;;;5.10;99.90;;;;;;5048149;28;20200;-45
2024/01/23 02:31:48;;;;;;;6.25;1.88;;;5.10;99.90;;;;;;5048296;28;20220;-46
2024/01/23 02:34:16;;;;;;;5.30;1.67;;;5.10;99.90;;;;;;5042408;28;20231;-46
2024/01/23 02:36:45;;;;;;;11.85;1.98;;;5.10;99.90;;;;;;5050268;28;20232;-46
2024/01/23 02:39:13;;;;;;;3.25;1.45;;;5.10;99.90;;;;;;5045778;28;20239;-45
2024/01/23 02:41:43;;;;;;;5.65;2.13;;;5.10;99.90;;;;;;5049421;28;20235;-46
2024/01/23 02:44:11;;;;;;;5.93;1.70;;;5.10;99.90;;;;;;5049237;28;20347;-45
2024/01/23 02:46:42;;;;;;;3.03;1.50;;;5.10;99.90;;;;;;5048505;28;20267;-46
2024/01/23 02:49:10;;;;;;;10.02;1.88;;;5.10;99.90;;;;;;5048677;28;20192;-46
2024/01/23 02:51:38;;;;;;;5.20;1.45;;;5.10;99.90;;;;;;5049220;28;20227;-46
2024/01/23 02:54:07;;;;;;;6.28;1.70;;;5.10;99.90;;;;;;5047256;28;20295;-46
2024/01/23 02:56:36;;;;;;;4.53;1.50;;;5.10;99.90;;;;;;5047915;28;20221;-45
2024/01/23 02:59:06;;;;;;;5.68;1.77;;;5.10;99.90;;;;;;5047645;28;20197;-46
2024/01/23 03:01:34;;;;;;;4.70;2.55;;;5.10;99.90;;;;;;5046443;28;20339;-46
2024/01/23 03:04:02;;;;;;;3.75;1.27;;;5.10;99.90;;;;;;5047797;28;20220;-46
2024/01/23 03:06:30;;;;;;;4.68;1.75;;;5.10;99.90;;;;;;5045705;28;20208;-45
2024/01/23 03:09:00;;;;;;;4.38;1.33;;;5.10;99.90;;;;;;5048999;28;20201;-46
2024/01/23 03:11:28;;;;;;;3.25;1.33;;;5.10;99.90;;;;;;5037303;28;20216;-46
2024/01/23 03:13:57;;;;;;;6.32;1.83;;;5.10;99.90;;;;;;5050069;28;20594;-46
2024/01/23 03:16:27;;;;;;;3.00;1.45;;;5.10;99.90;;;;;;5040381;28;20228;-45
2024/01/23 03:18:55;;;;;;;5.53;1.40;;;5.20;99.90;;;;;;5049385;28;20613;-45
2024/01/23 03:21:24;;;;;;;4.13;2.03;;;5.10;99.90;;;;;;5042477;28;20559;-46
2024/01/23 03:23:53;;;;;;;4.57;1.55;;;5.10;99.90;;;;;;5031988;28;20205;-46
2024/01/23 03:26:21;;;;;;;3.50;1.35;;;5.10;99.90;;;;;;5045409;28;20583;-45
2024/01/23 03:28:53;;;;;;;2.83;1.25;;;5.20;99.90;;;;;;5049677;28;20247;-46
2024/01/23 03:31:21;;;;;;;2.92;1.60;;;5.10;99.90;;;;;;5039171;28;20232;-45
2024/01/23 03:33:51;;;;;;;4.35;1.35;;;5.20;99.90;;;;;;5027880;28;20307;-46
2024/01/23 03:36:20;;;;;;;7.55;1.38;;;5.10;99.90;;;;;;5029516;28;20363;-45
2024/01/23 03:38:48;;;;;;;6.88;1.83;;;5.10;99.90;;;;;;5040454;28;20689;-46
2024/01/23 03:41:17;;;;;;;5.53;1.73;;;5.20;99.90;;;;;;5047090;28;20232;-45
2024/01/23 03:43:48;;;;;;;5.05;1.70;;;5.20;99.90;;;;;;5049818;28;20208;-46
2024/01/23 03:46:17;;;;;;;7.90;2.15;;;5.10;99.90;;;;;;5045700;28;20232;-45
2024/01/23 03:48:45;;;;;;;5.25;1.70;;;5.20;99.90;;;;;;5031368;28;20673;-45
2024/01/23 03:51:14;;;;;;;7.30;1.45;;;5.20;99.90;;;;;;5046135;28;20574;-46
2024/01/23 03:53:43;;;;;;;3.92;1.23;;;5.20;99.90;;;;;;5044874;28;20201;-46
2024/01/23 03:56:11;;;;;;;5.63;1.67;;;5.10;99.90;;;;;;5047068;28;20655;-46
2024/01/23 03:58:39;;;;;;;2.90;1.33;;;5.10;99.90;;;;;;5042583;28;20224;-45
2024/01/23 04:01:07;;;;;;;6.72;2.58;;;5.20;99.90;;;;;;5034050;28;20237;-45
2024/01/23 04:03:35;;;;;;;3.63;1.33;;;5.20;99.90;;;;;;5048658;28;20258;-46
2024/01/23 04:06:04;;;;;;;2.65;1.30;;;5.20;99.90;;;;;;5040188;28;20212;-46
2024/01/23 04:08:34;;;;;;;5.80;1.50;;;5.20;99.90;;;;;;5050436;28;20586;-45
2024/01/23 04:11:02;;;;;;;4.85;1.42;;;5.10;99.90;;;;;;5042036;28;20730;-46
2024/01/23 04:13:30;;;;;;;3.83;1.55;;;5.20;99.90;;;;;;5049146;28;20207;-46
2024/01/23 04:15:58;;;;;;;4.82;1.70;;;5.20;99.90;;;;;;5047752;28;20220;-45
2024/01/23 04:18:27;;;;;;;3.40;1.30;;;5.20;99.90;;;;;;5048073;28;20956;-45
2024/01/23 04:20:55;;;;;;;9.60;2.78;;;5.20;99.90;;;;;;5041503;28;20370;-46
2024/01/23 04:23:23;;;;;;;5.88;1.88;;;5.20;99.90;;;;;;5049289;28;20727;-46
2024/01/23 04:25:53;;;;;;;6.95;1.73;;;5.20;99.90;;;;;;5046420;28;20760;-46
2024/01/23 04:28:22;;;;;;;7.90;2.65;;;5.20;99.90;;;;;;5042888;28;20634;-46
2024/01/23 04:30:52;;;;;;;4.65;1.83;;;5.20;99.90;;;;;;5042381;28;20229;-46
2024/01/23 04:33:21;;;;;;;3.08;1.20;;;5.20;99.90;;;;;;5048671;28;20706;-46
2024/01/23 04:35:49;;;;;;;4.60;1.63;;;5.10;99.90;;;;;;5040648;28;20217;-46
2024/01/23 04:38:18;;;;;;;4.53;1.52;;;5.20;99.90;;;;;;5051617;28;20669;-46
2024/01/23 04:40:46;;;;;;;2.75;1.63;;;5.20;99.90;;;;;;5046842;28;20758;-45
2024/01/23 04:43:16;;;;;;;5.80;1.65;;;5.20;99.90;;;;;;5052242;28;20216;-45
2024/01/23 04:45:44;;;;;;;5.10;1.48;;;5.20;99.90;;;;;;5051522;28;20238;-45
2024/01/23 04:48:12;;;;;;;3.15;1.42;;;5.20;99.90;;;;;;5042447;28;20578;-46
2024/01/23 04:50:41;;;;;;;5.47;1.60;;;5.20;99.90;;;;;;5048395;28;20304;-46
2024/01/23 04:53:09;;;;;;;6.00;1.65;;;5.20;99.90;;;;;;5048708;28;20205;-46
2024/01/23 04:55:38;;;;;;;7.00;1.90;;;5.20;99.90;;;;;;5033041;28;20574;-45
2024/01/23 04:58:06;;;;;;;5.53;1.38;;;5.20;99.90;;;;;;5049742;28;20197;-45
2024/01/23 05:00:36;;;;;;;5.55;1.75;;;5.20;99.90;;;;;;5047787;28;20228;-45
2024/01/23 05:03:05;;;;;;;4.30;1.48;;;5.20;99.90;;;;;;5049343;28;20712;-46
2024/01/23 05:05:33;;;;;;;4.60;1.27;;;5.20;99.90;;;;;;5051561;28;20254;-46
2024/01/23 05:08:02;;;;;;;5.38;2.30;;;5.20;99.90;;;;;;5051996;28;20280;-46
2024/01/23 05:10:30;;;;;;;6.78;1.50;;;5.20;99.90;;;;;;5048366;28;20633;-46
2024/01/23 05:12:58;;;;;;;3.40;1.80;;;5.20;99.90;;;;;;5044060;28;20216;-45
2024/01/23 05:15:27;;;;;;;4.95;2.17;;;5.20;99.90;;;;;;5037951;28;20231;-46
2024/01/23 05:17:56;;;;;;;5.72;1.75;;;5.20;99.90;;;;;;5048458;28;20665;-46
2024/01/23 05:20:25;;;;;;;3.35;1.30;;;5.20;99.90;;;;;;5047304;28;20221;-46
2024/01/23 05:22:54;;;;;;;3.63;1.77;;;5.20;99.90;;;;;;5042416;28;20239;-45
2024/01/23 05:25:24;;;;;;;2.95;1.48;;;5.20;99.90;;;;;;5051438;28;20293;-46
2024/01/23 05:27:52;;;;;;;4.88;1.40;;;5.10;99.90;;;;;;5029145;28;20618;-45
2024/01/23 05:30:20;;;;;;;2.83;1.23;;;5.20;99.90;;;;;;5048597;28;20215;-47
2024/01/23 05:32:50;;;;;;;3.25;2.30;;;5.20;99.90;;;;;;5048212;28;20681;-45
2024/01/23 05:35:19;;;;;;;4.90;1.42;;;5.20;99.90;;;;;;5050093;28;20227;-46
2024/01/23 05:37:48;;;;;;;4.10;1.95;;;5.20;99.90;;;;;;5044559;28;20288;-46
2024/01/23 05:40:16;;;;;;;3.85;1.60;;;5.20;99.90;;;;;;5049719;28;20220;-46
2024/01/23 05:42:44;;;;;;;14.27;2.88;;;5.20;99.90;;;;;;5045760;28;20205;-46
2024/01/23 05:45:13;;;;;;;4.38;1.30;;;5.20;99.90;;;;;;5050083;28;20694;-45
2024/01/23 05:47:41;;;;;;;4.60;1.70;;;5.20;99.90;;;;;;5051957;28;20188;-45
2024/01/23 05:50:10;;;;;;;9.05;2.03;;;5.20;99.90;;;;;;5051351;28;20711;-45
2024/01/23 05:52:39;;;;;;;3.45;1.60;;;5.20;99.90;;;;;;5041653;28;20213;-45
2024/01/23 05:55:08;;;;;;;6.00;1.55;;;5.20;99.90;;;;;;5022599;28;20229;-46
2024/01/23 05:57:35;;;;;;;4.15;1.42;;;5.20;99.90;;;;;;5036338;28;20197;-45
2024/01/23 06:00:06;;;;;;;4.68;1.92;;;5.20;99.90;;;;;;5038815;28;20839;-45
2024/01/23 06:02:34;;;;;;;7.93;1.85;;;5.20;99.90;;;;;;5038513;28;20228;-46
2024/01/23 06:05:03;;;;;;;5.68;1.52;;;5.20;99.90;;;;;;5057016;28;20221;-46
2024/01/23 06:07:31;;;;;;;5.85;1.55;;;5.20;99.90;;;;;;5047971;28;20275;-46
2024/01/23 06:10:02;;;;;;;4.90;2.22;;;5.20;99.90;;;;;;5044066;28;20221;-45
2024/01/23 06:12:30;;;;;;;4.35;1.73;;;5.20;99.90;;;;;;5048039;28;20204;-46
2024/01/23 06:14:58;;;;;;;4.10;1.50;;;5.20;99.90;;;;;;5029352;28;20248;-45
2024/01/23 06:17:27;;;;;;;4.75;1.80;;;5.20;99.90;;;;;;5048765;28;20205;-46
2024/01/23 06:19:55;;;;;;;4.22;1.38;;;5.20;99.90;;;;;;5041052;28;20216;-45
2024/01/23 06:22:25;;;;;;;5.38;1.70;;;5.20;99.90;;;;;;5036742;28;20213;-46
2024/01/23 06:25:04;;;;;;;5.10;1.98;;;5.20;99.90;;;;;;5033819;28;20227;-46
2024/01/23 06:27:33;;;;;;;3.47;1.10;;;5.20;99.90;;;;;;5028574;28;20563;-46
2024/01/23 06:30:01;;;;;;;5.47;1.40;;;5.20;99.90;;;;;;5041182;28;20591;-46
2024/01/23 06:32:29;;;;;;;4.65;1.30;;;5.20;99.90;;;;;;5044391;28;20221;-45
2024/01/23 06:34:57;;;;;;;7.20;1.75;;;5.20;99.90;;;;;;5030204;28;20228;-45
2024/01/23 06:37:25;;;;;;;5.15;1.60;;;5.20;99.90;;;;;;5045925;28;20190;-46
2024/01/23 06:39:53;;;;;;;4.80;1.45;;;5.20;99.90;;;;;;5034749;28;20713;-46
2024/01/23 06:42:26;;;;;;;4.55;1.30;;;5.20;99.90;;;;;;5037525;28;20215;-46
2024/01/23 06:44:54;;;;;;;3.20;1.30;;;5.20;99.90;;;;;;5040729;28;20225;-46
2024/01/23 06:47:23;;;;;;;5.10;1.30;;;5.20;99.90;;;;;;5034841;28;20205;-46
2024/01/23 06:49:52;;;;;;;5.03;1.90;;;5.20;99.90;;;;;;5045566;28;20679;-46
2024/01/23 06:52:20;;;;;;;3.15;1.70;;;5.20;99.90;;;;;;5016719;28;20217;-46
2024/01/23 06:54:48;;;;;;;5.35;1.65;;;5.20;99.90;;;;;;5045564;28;20242;-45
2024/01/23 06:57:16;;;;;;;3.70;1.55;;;5.20;99.90;;;;;;5041386;28;20209;-46
2024/01/23 06:59:46;;;;;;;5.93;1.70;;;5.20;99.90;;;;;;5049330;28;20562;-46
2024/01/23 07:02:14;;;;;;;3.20;1.70;;;5.20;99.90;;;;;;5046967;28;20698;-46
2024/01/23 07:04:42;;;;;;;4.07;1.52;;;5.20;99.90;;;;;;5028761;28;20217;-46
2024/01/23 07:07:10;;;;;;;4.55;1.65;;;5.20;99.90;;;;;;5039182;28;20206;-45
2024/01/23 07:09:39;;;;;;;4.20;1.65;;;5.20;99.90;;;;;;5041984;28;20234;-46
2024/01/23 07:12:07;;;;;;;4.35;1.30;;;5.20;99.90;;;;;;5032726;28;20371;-46
2024/01/23 07:14:35;;;;;;;4.22;1.45;;;5.20;99.90;;;;;;5039280;28;20882;-46
2024/01/23 07:17:05;;;;;;;6.80;1.77;;;5.20;99.90;;;;;;5037541;28;20200;-46
2024/01/23 07:19:33;;;;;;;4.47;1.35;;;5.20;99.90;;;;;;5036889;28;20204;-47
2024/01/23 07:22:01;;;;;;;5.68;1.77;;;5.20;99.90;;;;;;5036717;28;20595;-45
2024/01/23 07:24:29;;;;;;;4.10;2.08;;;5.20;99.90;;;;;;5041947;28;20209;-46
2024/01/23 07:26:57;;;;;;;3.42;1.52;;;5.20;99.90;;;;;;5047015;28;20228;-45
2024/01/23 07:29:25;;;;;;;4.45;1.38;;;5.20;99.90;;;;;;5035119;28;20737;-46
2024/01/23 07:31:53;;;;;;;5.72;2.00;;;5.20;99.90;;;;;;5039258;28;20221;-46
2024/01/23 07:34:23;;;;;;;4.15;1.17;;;5.20;99.90;;;;;;5045877;28;20222;-45
2024/01/23 07:36:51;;;;;;;4.60;1.40;;;5.20;99.90;;;;;;5034612;28;20572;-47
2024/01/23 07:39:20;;;;;;;6.50;1.40;;;5.20;99.90;;;;;;5039010;28;20296;-46
2024/01/23 07:41:48;;;;;;;3.40;1.60;;;5.20;99.90;;;;;;5036238;28;20229;-46
2024/01/23 07:44:16;;;;;;;3.47;1.40;;;5.20;99.90;;;;;;5033018;28;20694;-47
2024/01/23 07:46:47;;;;;;;7.07;2.00;;;5.20;99.90;;;;;;5040787;28;20224;-46
2024/01/23 07:49:16;;;;;;;4.88;1.30;;;5.20;99.90;;;;;;5034942;28;20204;-46
2024/01/23 07:51:52;;;;;;;4.00;1.33;;;5.20;99.90;;;;;;5038843;28;20231;-46
2024/01/23 07:54:20;;;;;;;7.63;2.45;;;5.20;99.90;;;;;;5032180;28;20181;-45
2024/01/23 07:56:50;;;;;;;2.42;1.00;;;5.20;99.90;;;;;;5038428;28;20742;-46
2024/01/23 07:59:18;;;;;;;5.53;1.90;;;5.20;99.90;;;;;;5044200;28;20555;-46
2024/01/23 08:01:46;;;;;;;5.90;1.20;;;5.20;99.90;;;;;;5037732;28;20311;-46
2024/01/23 08:04:14;;;;;;;4.60;1.52;;;5.20;99.90;;;;;;5033362;28;20215;-46
2024/01/23 08:06:42;;;;;;;3.58;1.85;;;5.20;99.90;;;;;;5041037;28;20217;-46
2024/01/23 08:09:13;;;;;;;5.97;1.23;;;5.20;99.90;;;;;;5034838;28;20190;-46
2024/01/23 08:11:42;;;;;;;4.22;1.63;;;5.20;99.90;;;;;;5033905;28;20229;-45
2024/01/23 08:14:10;;;;;;;3.72;1.35;;;5.20;99.90;;;;;;5046386;28;20580;-46
2024/01/23 08:16:38;;;;;;;2.80;1.23;;;5.20;99.90;;;;;;5031050;28;20690;-45
2024/01/23 08:19:07;;;;;;;3.20;1.25;;;5.20;99.90;;;;;;5038177;28;20584;-46
2024/01/23 08:21:35;;;;;;;4.05;1.50;;;5.20;99.90;;;;;;5034594;28;20769;-45
2024/01/23 08:24:04;;;;;;;4.68;1.38;;;5.20;99.90;;;;;;5038110;28;20228;-46
2024/01/23 08:26:34;;;;;;;2.00;0.88;;;5.20;99.90;;;;;;5036928;28;20229;-46
2024/01/23 08:29:02;;;;;;;3.25;1.10;;;5.20;99.90;;;;;;5037595;28;20283;-47
2024/01/23 08:31:30;;;;;;;5.03;1.30;;;5.20;99.90;;;;;;5035575;28;20729;-46
2024/01/23 08:33:59;;;;;;;6.88;1.45;;;5.20;99.90;;;;;;5036483;28;20554;-47
2024/01/23 08:36:28;;;;;;;3.28;1.40;;;5.20;99.90;;;;;;5037904;28;20302;-46
2024/01/23 08:38:56;;;;;;;4.10;1.23;;;5.20;99.90;;;;;;5037557;28;20723;-46
2024/01/23 08:41:24;;;;;;;4.07;1.33;;;5.20;99.90;;;;;;5043293;28;20209;-46
2024/01/23 08:43:54;;;;;;;2.30;1.48;;;5.20;99.90;;;;;;5037637;28;20709;-47
2024/01/23 08:46:22;;;;;;;4.82;1.60;;;5.20;99.90;;;;;;5031989;28;20229;-46
2024/01/23 08:48:50;;;;;;;6.60;1.60;;;5.20;99.90;;;;;;5040998;28;20247;-46
2024/01/23 08:51:21;;;;;;;5.03;1.13;;;5.20;99.90;;;;;;5039334;28;20582;-47
2024/01/23 08:53:51;;;;;;;3.15;1.30;;;5.20;99.90;;;;;;5042050;28;20306;-46
2024/01/23 08:56:20;;;;;;;5.03;1.70;;;5.20;99.90;;;;;;5038763;28;20209;-46
2024/01/23 08:58:49;;;;;;;3.30;1.65;;;5.20;99.90;;;;;;5031916;28;20250;-46
2024/01/23 09:01:19;;;;;;;4.13;1.67;;;5.20;99.90;;;;;;5032266;28;20252;-47
2024/01/23 09:03:47;;;;;;;6.10;2.25;;;5.20;99.90;;;;;;5035884;28;20217;-46
2024/01/23 09:06:15;;;;;;;5.60;1.90;;;5.20;99.90;;;;;;5030965;28;20221;-46
2024/01/23 09:08:44;;;;;;;2.97;1.10;;;5.20;99.90;;;;;;5025703;28;20197;-46
2024/01/23 09:11:12;;;;;;;5.60;1.20;;;5.20;99.90;;;;;;5020783;28;20227;-46
2024/01/23 09:13:40;;;;;;;4.22;1.27;;;5.20;99.90;;;;;;5030068;28;20182;-46
2024/01/23 09:16:08;;;;;;;5.35;1.10;;;5.20;99.90;;;;;;5029307;28;20221;-47
2024/01/23 09:18:38;;;;;;;6.10;1.55;;;5.20;99.90;;;;;;5032805;28;20288;-46
2024/01/23 09:21:08;;;;;;;3.75;1.77;;;5.30;99.90;;;;;;5029876;28;20218;-46
2024/01/23 09:23:38;;;;;;;3.95;1.20;;;5.30;99.90;;;;;;5040296;28;20667;-46
2024/01/23 09:26:06;;;;;;;5.05;1.55;;;5.20;99.90;;;;;;5033928;28;20213;-46
2024/01/23 09:28:34;;;;;;;4.30;1.73;;;5.30;99.90;;;;;;5033821;28;20308;-46
2024/01/23 09:31:03;;;;;;;5.15;1.50;;;5.30;99.90;;;;;;5033219;28;20300;-47
2024/01/23 09:33:31;;;;;;;4.53;1.85;;;5.30;99.90;;;;;;5034645;28;20671;-46
2024/01/23 09:36:01;;;;;;;4.20;1.50;;;5.30;99.90;;;;;;5042565;28;20386;-46
2024/01/23 09:38:29;;;;;;;4.60;1.60;;;5.30;99.90;;;;;;5031993;28;20221;-46
2024/01/23 09:40:57;;;;;;;3.30;1.35;;;5.30;99.90;;;;;;5037591;28;20230;-46
2024/01/23 09:43:27;;;;;;;3.08;1.15;;;5.30;99.90;;;;;;5034259;28;20879;-43
2024/01/23 09:45:57;;;;;;;5.78;1.90;;;5.30;99.90;;;;;;5039746;28;20725;-46
2024/01/23 09:48:26;;;;;;;8.65;2.67;;;5.40;99.90;;;;;;5041910;28;20204;-46
2024/01/23 09:50:56;;;;;;;12.75;3.95;;;5.50;99.90;;;;;;5039727;28;20308;-46
2024/01/23 09:53:27;;;;;;;8.63;2.00;;;5.60;99.90;;;;;;5043210;28;20601;-46
2024/01/23 09:55:55;;;;;;;8.23;2.33;;;5.60;99.90;;;;;;5035334;28;20447;-46
2024/01/23 09:58:23;;;;;;;10.73;2.85;;;5.70;99.90;;;;;;5040419;28;20250;-46
2024/01/23 10:00:53;;;;;;;7.38;2.13;;;5.60;99.90;;;;;;5035902;28;20547;-46
2024/01/23 10:03:22;;;;;;;9.65;3.08;;;5.60;99.90;;;;;;5037568;28;20220;-46
2024/01/23 10:05:51;;;;;;;10.32;2.80;;;5.60;99.90;;;;;;5039918;28;20233;-46
2024/01/23 10:08:22;;;;;;;16.77;3.20;;;5.50;99.90;;;;;;5046090;28;20197;-46
2024/01/23 10:10:58;;;;;;;9.52;2.58;;;5.50;99.90;;;;;;5035131;28;20225;-46
2024/01/23 10:13:26;;;;;;;8.07;2.42;;;5.50;99.90;;;;;;5044887;28;20231;-46
2024/01/23 10:15:55;;;;;;;10.80;2.40;;;5.50;99.90;;;;;;5041761;28;20224;-46
2024/01/23 10:18:23;;;;;;;7.55;2.60;;;5.50;99.90;;;;;;5040382;28;20208;-46
2024/01/23 10:20:56;;;;;;;7.57;2.35;;;5.50;99.90;;;;;;5045654;28;20212;-46
2024/01/23 10:23:24;;;;;;;4.95;2.22;;;5.50;99.90;;;;;;5042300;28;20224;-46
2024/01/23 10:25:54;;;;;;;9.25;2.35;;;5.40;99.90;;;;;;5034779;28;20753;-45
2024/01/23 10:28:24;;;;;;;4.13;2.20;;;5.40;99.90;;;;;;5041176;28;20285;-45
2024/01/23 10:30:53;;;;;;;7.30;2.70;;;5.40;99.90;;;;;;5042000;28;20315;-46
2024/01/23 10:33:21;;;;;;;5.65;2.15;;;5.40;99.90;;;;;;5039080;28;20208;-46
2024/01/23 10:35:50;;;;;;;6.63;2.50;;;5.40;99.90;;;;;;5034127;28;20300;-45
2024/01/23 10:38:18;;;;;;;7.05;2.20;;;5.40;99.90;;;;;;5034745;28;20204;-45
2024/01/23 10:40:48;;;;;;;10.20;2.65;;;5.40;99.90;;;;;;5041470;28;20410;-46
2024/01/23 10:43:17;;;;;;;6.97;2.70;;;5.40;99.90;;;;;;5042185;28;20221;-46
2024/01/23 10:45:48;;;;;;;6.88;2.13;;;5.40;99.90;;;;;;5021425;28;20216;-46
2024/01/23 10:48:17;;;;;;;7.10;2.05;;;5.40;99.90;;;;;;5043042;28;20706;-45
2024/01/23 10:50:47;;;;;;;4.85;2.40;;;5.40;99.90;;;;;;5037948;28;20510;-45
2024/01/23 10:53:16;;;;;;;8.88;2.17;;;5.40;99.90;;;;;;5037055;28;20209;-45
2024/01/23 10:55:47;;;;;;;7.10;2.63;;;5.40;99.90;;;;;;5042700;28;20229;-45
2024/01/23 10:58:24;;;;;;;4.53;1.63;;;5.40;99.90;;;;;;5042409;28;20203;-46
2024/01/23 11:00:57;;;;;;;6.47;1.75;;;5.40;99.90;;;;;;5039411;28;20781;-46
2024/01/23 11:03:26;;;;;;;6.25;2.28;;;5.40;99.90;;;;;;5042059;28;20332;-46
2024/01/23 11:06:00;;;;;;;4.32;1.77;;;5.40;99.90;;;;;;5050138;28;20220;-46
2024/01/23 11:08:35;;;;;;;7.70;1.98;;;5.40;99.90;;;;;;5040524;28;20193;-46
2024/01/23 11:11:16;;;;;;;7.93;2.17;;;5.40;99.90;;;;;;5037848;28;20224;-46
2024/01/23 11:13:55;;;;;;;4.47;2.35;;;5.40;99.90;;;;;;5038707;28;20284;-46
2024/01/23 11:16:28;;;;;;;6.45;1.98;;;5.40;99.90;;;;;;5038942;28;20216;-46
2024/01/23 11:18:56;;;;;;;5.70;1.77;;;5.40;99.90;;;;;;5034209;28;20319;-45
2024/01/23 11:21:26;;;;;;;6.43;1.98;;;5.40;99.90;;;;;;5040002;28;20240;-45
2024/01/23 11:24:01;;;;;;;5.00;1.80;;;5.40;99.90;;;;;;5039769;28;20201;-46
2024/01/23 11:26:32;;;;;;;3.75;1.20;;;5.40;99.90;;;;;;5034585;28;20212;-45
2024/01/23 11:29:04;;;;;;;6.90;2.03;;;5.40;99.90;;;;;;5037878;28;20208;-45
2024/01/23 11:31:43;;;;;;;3.90;1.65;;;5.40;99.90;;;;;;5037932;28;20264;-45
2024/01/23 11:34:39;;;;;;;6.13;2.58;;;5.40;99.90;;;;;;5034740;28;20257;-46
2024/01/23 11:37:46;;;;;;;9.18;2.05;;;5.40;99.90;;;;;;5033024;28;20291;-45
2024/01/23 11:40:35;;;;;;;4.55;2.05;;;5.40;99.90;;;;;;5036025;28;20215;-45
2024/01/23 11:43:06;;;;;;;8.02;1.80;;;5.40;99.90;;;;;;5039378;28;20564;-46
2024/01/23 11:45:36;;;;;;;5.47;2.03;;;5.40;99.90;;;;;;5038878;28;20228;-46
2024/01/23 11:48:08;;;;;;;5.72;1.90;;;5.40;99.90;;;;;;5039980;28;20206;-46
2024/01/23 11:50:38;;;;;;;5.65;2.03;;;5.40;99.90;;;;;;5031584;28;20221;-46
2024/01/23 11:53:06;;;;;;;5.70;2.40;;;5.40;99.90;;;;;;5033631;28;20680;-45
2024/01/23 11:55:39;;;;;;;11.80;2.20;;;5.40;99.90;;;;;;5042153;28;20205;-46
2024/01/23 11:58:08;;;;;;;5.85;2.05;;;5.40;99.90;;;;;;5040489;28;20201;-46
2024/01/23 12:00:36;;;;;;;9.77;2.55;;;5.40;99.90;;;;;;5042340;28;20331;-46
2024/01/23 12:03:13;;;;;;;6.25;2.03;;;5.40;99.90;;;;;;5033660;28;20247;-46
2024/01/23 12:05:41;;;;;;;3.08;1.33;;;5.40;99.90;;;;;;5034158;28;20213;-46
2024/01/23 12:08:11;;;;;;;4.82;1.92;;;5.40;99.90;;;;;;5038181;28;20193;-46
2024/01/23 12:10:39;;;;;;;4.00;1.70;;;5.40;99.90;;;;;;5036716;28;20744;-46
2024/01/23 12:13:09;;;;;;;5.00;1.55;;;5.40;99.90;;;;;;5040545;28;20216;-46
2024/01/23 12:15:38;;;;;;;4.22;1.73;;;5.40;99.90;;;;;;5031972;28;20312;-46
2024/01/23 12:18:06;;;;;;;4.38;1.60;;;5.40;99.90;;;;;;5036618;28;20212;-46
2024/01/23 12:20:36;;;;;;;2.78;1.20;;;5.40;99.90;;;;;;5047600;28;20245;-46
2024/01/23 12:23:04;;;;;;;7.35;1.90;;;5.40;99.90;;;;;;5037676;28;20224;-46
2024/01/23 12:25:36;;;;;;;4.30;1.80;;;5.40;99.90;;;;;;5040585;28;20216;-45
2024/01/23 12:28:05;;;;;;;3.75;1.70;;;5.40;99.90;;;;;;5038395;28;20259;-46
2024/01/23 12:30:34;;;;;;;4.43;1.73;;;5.40;99.90;;;;;;5032799;28;20231;-46
2024/01/23 12:33:02;;;;;;;4.97;1.60;;;5.40;99.90;;;;;;5039938;28;20263;-46
2024/01/23 12:35:31;;;;;;;3.55;1.77;;;5.40;99.90;;;;;;5035347;28;20209;-45
2024/01/23 12:38:03;;;;;;;4.85;1.60;;;5.40;99.90;;;;;;5035044;28;20204;-45
2024/01/23 12:40:31;;;;;;;3.08;1.80;;;5.40;99.90;;;;;;5041016;28;20270;-45
2024/01/23 12:42:59;;;;;;;2.92;1.25;;;5.40;99.90;;;;;;5041507;28;20268;-45
2024/01/23 12:45:27;;;;;;;4.07;1.73;;;5.40;99.90;;;;;;5036049;28;20224;-46
2024/01/23 12:47:56;;;;;;;5.85;1.88;;;5.40;99.90;;;;;;5031813;28;20223;-46
2024/01/23 12:50:25;;;;;;;6.32;2.17;;;5.40;99.90;;;;;;5039176;28;20644;-45
2024/01/23 12:52:55;;;;;;;4.97;2.33;;;5.40;99.90;;;;;;5039066;28;20220;-46
2024/01/23 12:55:28;;;;;;;4.47;1.70;;;5.40;99.90;;;;;;5037534;28;20213;-46
2024/01/23 12:57:56;;;;;;;3.55;1.63;;;5.40;99.90;;;;;;5032414;28;20228;-46
2024/01/23 13:00:24;;;;;;;5.07;1.40;;;5.40;99.90;;;;;;5044264;28;20212;-46
2024/01/23 13:02:53;;;;;;;4.88;1.55;;;5.50;99.90;;;;;;5047705;28;20235;-45
2024/01/23 13:05:22;;;;;;;2.42;1.55;;;5.50;99.90;;;;;;5042769;28;20650;-45
2024/01/23 13:07:50;;;;;;;6.40;1.90;;;5.50;99.90;;;;;;5036132;28;20214;-46